createdAt,value
2023-05-21T00:01:55.935Z,100116.59
2023-05-21T00:04:22.816Z,100098.41
2023-05-21T00:06:49.570Z,100100.38
2023-05-21T00:09:16.362Z,100120.25
2023-05-21T00:11:43.057Z,100105.03
2023-05-21T00:14:09.814Z,100118.91
2023-05-21T00:16:36.646Z,100105.91
2023-05-21T00:19:03.660Z,100107.16
2023-05-21T00:21:31.849Z,100089.91
2023-05-21T00:23:58.977Z,100092.47
2023-05-21T00:26:25.775Z,100056.34
2023-05-21T00:28:52.572Z,100128.63
2023-05-21T00:31:19.443Z,100122.53
2023-05-21T00:33:46.245Z,100116.44
2023-05-21T00:36:14.635Z,100115.63
2023-05-21T00:38:46.154Z,100114.28
2023-05-21T00:41:13.162Z,100091.91
2023-05-21T00:43:44.747Z,100123.81
2023-05-21T00:46:21.050Z,100101.28
2023-05-21T00:48:48.409Z,100108.31
2023-05-21T00:51:16.214Z,100126.19
2023-05-21T00:53:45.014Z,100125.44
2023-05-21T00:56:11.849Z,100103.13
2023-05-21T00:58:39.508Z,100118.38
2023-05-21T01:01:06.924Z,100127.47
2023-05-21T01:03:38.650Z,100118.31
2023-05-21T01:06:06.500Z,100129.41
2023-05-21T01:08:35.017Z,100125.19
2023-05-21T01:11:02.709Z,100103.59
2023-05-21T01:13:29.726Z,100107.09
2023-05-21T01:15:58.216Z,100100.31
2023-05-21T01:18:25.071Z,100090.22
2023-05-21T01:20:52.460Z,100126.63
2023-05-21T01:23:20.373Z,100123.69
2023-05-21T01:25:47.803Z,100124.41
2023-05-21T01:28:14.889Z,100114.03
2023-05-21T01:30:42.053Z,100106.81
2023-05-21T01:33:23.573Z,100123.94
2023-05-21T01:35:53.964Z,100128.47
2023-05-21T01:38:27.224Z,100125.06
2023-05-21T01:40:58.987Z,100132.28
2023-05-21T01:43:28.231Z,100118.47
2023-05-21T01:45:56.480Z,100137.88
2023-05-21T01:48:25.812Z,100115.06
2023-05-21T01:50:53.128Z,100129.47
2023-05-21T01:53:19.990Z,100132.41
2023-05-21T01:55:47.151Z,100127.28
2023-05-21T01:58:14.108Z,100143.69
2023-05-21T02:00:40.901Z,100151.72
2023-05-21T02:03:08.970Z,100151.91
2023-05-21T02:05:36.124Z,100171.22
2023-05-21T02:08:02.999Z,100172.16
2023-05-21T02:10:29.901Z,100155.97
2023-05-21T02:12:56.611Z,100169.53
2023-05-21T02:15:25.087Z,100153.69
2023-05-21T02:17:52.001Z,100175.28
2023-05-21T02:20:19.184Z,100179.63
2023-05-21T02:22:47.581Z,100173.06
2023-05-21T02:25:16.063Z,100167.09
2023-05-21T02:27:43.494Z,100156.03
2023-05-21T02:30:12.652Z,100184.81
2023-05-21T02:32:42.996Z,100179.75
2023-05-21T02:35:11.855Z,100164.19
2023-05-21T02:37:40.720Z,100134.91
2023-05-21T02:40:09.969Z,100111.81
2023-05-21T02:42:39.772Z,100094.78
2023-05-21T02:45:11.138Z,100094.66
2023-05-21T02:47:38.771Z,100096.78
2023-05-21T02:50:07.649Z,100078.59
2023-05-21T02:52:34.469Z,100069.13
2023-05-21T02:55:01.415Z,100097.28
2023-05-21T02:57:28.186Z,100082.44
2023-05-21T02:59:54.963Z,100091.47
2023-05-21T03:02:21.890Z,100078.81
2023-05-21T03:04:49.070Z,100077.06
2023-05-21T03:07:18.247Z,100084.06
2023-05-21T03:09:45.433Z,100075.31
2023-05-21T03:12:12.307Z,100056.81
2023-05-21T03:14:39.161Z,100067.31
2023-05-21T03:17:06.333Z,100078.56
2023-05-21T03:19:36.646Z,100073.56
2023-05-21T03:22:04.072Z,100077.69
2023-05-21T03:24:30.947Z,100069.72
2023-05-21T03:26:57.710Z,100046.03
2023-05-21T03:29:24.430Z,100057.72
2023-05-21T03:31:53.053Z,100081.94
2023-05-21T03:34:20.304Z,100093.16
2023-05-21T03:36:47.769Z,100093.00
2023-05-21T03:39:15.016Z,100083.88
2023-05-21T03:41:41.894Z,100076.03
2023-05-21T03:44:09.126Z,100082.25
2023-05-21T03:46:35.989Z,100095.78
2023-05-21T03:49:02.961Z,100092.00
2023-05-21T03:51:32.435Z,100108.34
2023-05-21T03:53:59.605Z,100108.06
2023-05-21T03:56:26.546Z,100092.91
2023-05-21T03:58:53.345Z,100087.09
2023-05-21T04:01:20.256Z,100103.84
2023-05-21T04:03:47.191Z,100119.22
2023-05-21T04:06:14.314Z,100107.50
2023-05-21T04:08:41.055Z,100103.31
2023-05-21T04:11:07.831Z,100091.31
2023-05-21T04:13:34.612Z,100082.03
2023-05-21T04:16:01.465Z,100097.06
2023-05-21T04:18:28.333Z,100077.63
2023-05-21T04:20:55.138Z,100073.78
2023-05-21T04:23:23.809Z,100078.75
2023-05-21T04:25:51.180Z,100085.81
2023-05-21T04:28:20.504Z,100100.88
2023-05-21T04:30:50.425Z,100079.44
2023-05-21T04:33:18.515Z,100065.00
2023-05-21T04:35:50.257Z,100074.75
2023-05-21T04:38:19.789Z,100063.16
2023-05-21T04:40:53.386Z,100081.41
2023-05-21T04:43:25.774Z,100083.44
2023-05-21T04:45:55.055Z,100063.69
2023-05-21T04:48:24.840Z,100079.22
2023-05-21T04:50:53.694Z,100067.06
2023-05-21T04:53:20.996Z,100063.88
2023-05-21T04:55:48.134Z,100060.69
2023-05-21T04:58:17.827Z,100042.31
2023-05-21T05:00:47.010Z,100042.41
2023-05-21T05:03:14.636Z,100051.31
2023-05-21T05:05:41.499Z,100053.00
2023-05-21T05:08:08.707Z,100037.44
2023-05-21T05:10:35.710Z,100053.81
2023-05-21T05:13:02.431Z,100047.00
2023-05-21T05:15:29.262Z,100062.50
2023-05-21T05:17:56.711Z,100053.13
2023-05-21T05:20:23.612Z,100066.63
2023-05-21T05:22:50.560Z,100054.47
2023-05-21T05:25:17.442Z,100057.63
2023-05-21T05:27:44.370Z,100055.06
2023-05-21T05:30:11.510Z,100052.19
2023-05-21T05:32:38.334Z,100057.69
2023-05-21T05:35:06.161Z,100062.03
2023-05-21T05:37:33.685Z,100081.38
2023-05-21T05:40:00.580Z,100079.84
2023-05-21T05:42:27.386Z,100069.63
2023-05-21T05:44:54.018Z,100072.75
2023-05-21T05:47:21.922Z,100067.53
2023-05-21T05:49:48.717Z,100057.47
2023-05-21T05:52:15.572Z,100075.53
2023-05-21T05:54:42.351Z,100071.34
2023-05-21T05:57:09.169Z,100070.59
2023-05-21T05:59:36.212Z,100061.84
2023-05-21T06:02:03.008Z,100057.00
2023-05-21T06:04:30.225Z,100057.38
2023-05-21T06:07:00.750Z,100058.22
2023-05-21T06:09:27.460Z,100050.22
2023-05-21T06:11:54.358Z,100072.97
2023-05-21T06:14:21.299Z,100059.09
2023-05-21T06:16:48.062Z,100065.44
2023-05-21T06:19:15.099Z,100072.00
2023-05-21T06:21:41.836Z,100048.59
2023-05-21T06:24:08.512Z,100067.25
2023-05-21T06:26:35.308Z,100010.28
2023-05-21T06:29:03.858Z,99977.03
2023-05-21T06:31:33.337Z,100038.63
2023-05-21T06:34:00.928Z,100048.59
2023-05-21T06:36:30.213Z,100041.88
2023-05-21T06:38:57.471Z,100022.28
2023-05-21T06:41:24.421Z,100019.16
2023-05-21T06:43:51.713Z,100003.31
2023-05-21T06:46:18.625Z,100026.13
2023-05-21T06:48:46.525Z,100030.81
2023-05-21T06:51:13.199Z,100020.53
2023-05-21T06:53:40.046Z,100022.44
2023-05-21T06:56:07.073Z,100015.94
2023-05-21T06:58:33.966Z,100004.00
2023-05-21T07:01:01.490Z,99978.34
2023-05-21T07:03:28.377Z,99999.38
2023-05-21T07:05:55.380Z,99991.94
2023-05-21T07:08:22.539Z,99977.31
2023-05-21T07:10:49.517Z,99984.75
2023-05-21T07:13:16.982Z,99974.00
2023-05-21T07:15:43.923Z,99987.53
2023-05-21T07:18:10.685Z,99983.44
2023-05-21T07:20:37.454Z,99980.97
2023-05-21T07:23:04.136Z,99982.31
2023-05-21T07:25:31.148Z,99979.03
2023-05-21T07:27:57.941Z,99968.25
2023-05-21T07:30:24.631Z,99978.75
2023-05-21T07:32:51.444Z,99972.06
2023-05-21T07:35:18.606Z,99932.84
2023-05-21T07:37:46.449Z,99974.38
2023-05-21T07:40:13.778Z,99968.50
2023-05-21T07:42:40.731Z,99966.72
2023-05-21T07:45:07.926Z,99942.00
2023-05-21T07:47:34.623Z,99966.78
2023-05-21T07:50:01.304Z,99964.72
2023-05-21T07:52:28.262Z,99956.00
2023-05-21T07:54:55.101Z,99956.97
2023-05-21T07:57:21.904Z,99955.31
2023-05-21T07:59:48.574Z,99946.41
2023-05-21T08:02:15.420Z,99951.59
2023-05-21T08:04:42.606Z,99952.19
2023-05-21T08:07:09.939Z,99964.97
2023-05-21T08:09:36.908Z,99956.31
2023-05-21T08:12:04.249Z,99956.78
2023-05-21T08:14:31.092Z,99950.00
2023-05-21T08:16:57.792Z,99950.41
2023-05-21T08:19:24.817Z,99943.75
2023-05-21T08:21:52.975Z,99948.00
2023-05-21T08:24:20.254Z,99931.50
2023-05-21T08:26:47.618Z,99950.88
2023-05-21T08:29:14.266Z,99945.66
2023-05-21T08:31:41.778Z,99937.44
2023-05-21T08:34:08.531Z,99924.09
2023-05-21T08:36:36.134Z,99936.53
2023-05-21T08:39:02.853Z,99941.59
2023-05-21T08:41:31.425Z,99942.38
2023-05-21T08:44:02.250Z,99933.81
2023-05-21T08:46:40.658Z,99949.63
2023-05-21T08:49:12.504Z,99922.63
2023-05-21T08:51:39.786Z,99929.75
2023-05-21T08:54:08.658Z,99937.81
2023-05-21T08:56:36.022Z,99938.16
2023-05-21T08:59:03.246Z,99928.84
2023-05-21T09:01:32.195Z,99912.69
2023-05-21T09:04:12.229Z,99912.44
2023-05-21T09:06:47.188Z,99888.06
2023-05-21T09:09:35.204Z,99916.69
2023-05-21T09:12:01.969Z,99911.03
2023-05-21T09:14:29.115Z,99915.44
2023-05-21T09:16:55.840Z,99914.25
2023-05-21T09:19:22.784Z,99933.09
2023-05-21T09:21:52.031Z,99909.38
2023-05-21T09:24:22.837Z,99918.53
2023-05-21T09:26:49.604Z,99916.56
2023-05-21T09:29:16.491Z,99905.88
2023-05-21T09:31:44.901Z,99912.88
2023-05-21T09:34:11.953Z,99918.59
2023-05-21T09:36:38.708Z,99916.38
2023-05-21T09:39:05.718Z,99913.75
2023-05-21T09:41:37.061Z,99898.19
2023-05-21T09:44:04.216Z,99897.53
2023-05-21T09:46:41.359Z,99897.06
2023-05-21T09:49:22.939Z,99890.09
2023-05-21T09:51:50.747Z,99913.19
2023-05-21T09:54:17.450Z,99906.31
2023-05-21T09:56:44.433Z,99917.09
2023-05-21T09:59:11.113Z,99909.38
2023-05-21T10:01:38.830Z,99891.16
2023-05-21T10:04:09.224Z,99887.97
2023-05-21T10:06:43.070Z,99878.22
2023-05-21T10:09:11.009Z,99880.53
2023-05-21T10:11:38.209Z,99893.84
2023-05-21T10:14:06.334Z,99883.44
2023-05-21T10:16:34.477Z,99886.06
2023-05-21T10:19:01.420Z,99862.34
2023-05-21T10:21:28.276Z,99870.16
2023-05-21T10:23:59.056Z,99866.63
2023-05-21T10:26:26.520Z,99868.19
2023-05-21T10:28:55.755Z,99875.88
2023-05-21T10:31:23.152Z,99880.03
2023-05-21T10:33:51.204Z,99882.53
2023-05-21T10:36:18.883Z,99877.94
2023-05-21T10:38:46.003Z,99848.44
2023-05-21T10:41:14.052Z,99857.03
2023-05-21T10:44:13.092Z,99877.97
2023-05-21T10:47:10.685Z,99883.84
2023-05-21T10:50:19.080Z,99885.97
2023-05-21T10:53:44.449Z,99882.28
2023-05-21T10:56:39.172Z,99868.06
2023-05-21T10:59:53.257Z,99889.69
2023-05-21T11:02:21.124Z,99873.09
2023-05-21T11:04:49.431Z,99849.06
2023-05-21T11:07:23.347Z,99884.53
2023-05-21T11:09:53.131Z,99873.94
2023-05-21T11:12:23.405Z,99861.03
2023-05-21T11:14:59.444Z,99859.25
2023-05-21T11:17:43.311Z,99863.59
2023-05-21T11:20:16.799Z,99868.28
2023-05-21T11:22:46.754Z,99860.09
2023-05-21T11:25:15.706Z,99873.25
2023-05-21T11:27:42.874Z,99860.09
2023-05-21T11:30:11.392Z,99865.63
2023-05-21T11:32:40.146Z,99879.41
2023-05-21T11:35:07.947Z,99868.66
2023-05-21T11:37:35.320Z,99836.06
2023-05-21T11:40:26.287Z,99881.66
2023-05-21T11:42:57.114Z,99877.78
2023-05-21T11:45:28.867Z,99874.41
2023-05-21T11:47:56.493Z,99850.56
2023-05-21T11:50:23.641Z,99861.44
2023-05-21T11:52:51.155Z,99851.38
2023-05-21T11:55:22.326Z,99861.91
2023-05-21T11:57:53.531Z,99856.94
2023-05-21T12:00:20.394Z,99863.25
2023-05-21T12:02:50.602Z,99878.25
2023-05-21T12:05:17.610Z,99856.03
2023-05-21T12:07:48.928Z,99857.19
2023-05-21T12:10:15.872Z,99864.31
2023-05-21T12:12:53.830Z,99865.41
2023-05-21T12:15:24.498Z,99864.81
2023-05-21T12:17:53.208Z,99847.50
2023-05-21T12:20:20.334Z,99853.94
2023-05-21T12:22:49.174Z,99854.06
2023-05-21T12:25:20.291Z,99845.19
2023-05-21T12:27:47.549Z,99852.84
2023-05-21T12:30:14.788Z,99879.50
2023-05-21T12:32:44.567Z,99839.16
2023-05-21T12:35:21.706Z,99855.47
2023-05-21T12:37:50.715Z,99861.22
2023-05-21T12:40:18.189Z,99869.84
2023-05-21T12:42:45.093Z,99853.81
2023-05-21T12:45:12.307Z,99853.53
2023-05-21T12:47:39.062Z,99860.31
2023-05-21T12:50:09.629Z,99841.84
2023-05-21T12:52:36.333Z,99851.41
2023-05-21T12:55:03.151Z,99850.91
2023-05-21T12:57:39.094Z,99842.28
2023-05-21T13:00:07.311Z,99848.63
2023-05-21T13:02:41.967Z,99845.88
2023-05-21T13:05:19.741Z,99839.28
2023-05-21T13:07:47.583Z,99866.38
2023-05-21T13:10:17.811Z,99844.97
2023-05-21T13:12:45.310Z,99826.50
2023-05-21T13:15:12.204Z,99849.44
2023-05-21T13:17:38.975Z,99848.16
2023-05-21T13:20:16.970Z,99844.63
2023-05-21T13:22:48.295Z,99834.34
2023-05-21T13:25:16.464Z,99851.53
2023-05-21T13:27:43.734Z,99844.25
2023-05-21T13:30:13.008Z,99848.16
2023-05-21T13:32:40.767Z,99841.38
2023-05-21T13:35:08.159Z,99861.22
2023-05-21T13:37:38.309Z,99837.41
2023-05-21T13:40:06.971Z,99848.81
2023-05-21T13:42:35.299Z,99857.44
2023-05-21T13:45:02.160Z,99855.25
2023-05-21T13:47:29.004Z,99825.94
2023-05-21T13:49:55.912Z,99830.25
2023-05-21T13:52:22.647Z,99838.25
2023-05-21T13:54:49.326Z,99840.91
2023-05-21T13:57:16.289Z,99843.19
2023-05-21T13:59:43.194Z,99821.81
2023-05-21T14:02:10.559Z,99812.97
2023-05-21T14:04:39.299Z,99831.44
2023-05-21T14:07:07.224Z,99852.72
2023-05-21T14:09:34.358Z,99823.50
2023-05-21T14:12:06.583Z,99830.88
2023-05-21T14:14:33.670Z,99820.75
2023-05-21T14:17:00.687Z,99758.28
2023-05-21T14:19:27.590Z,99819.84
2023-05-21T14:21:55.009Z,99828.41
2023-05-21T14:24:21.732Z,99816.00
2023-05-21T14:26:48.570Z,99833.78
2023-05-21T14:29:15.713Z,99809.41
2023-05-21T14:31:42.540Z,99819.56
2023-05-21T14:34:09.390Z,99827.19
2023-05-21T14:36:36.635Z,99819.09
2023-05-21T14:39:03.962Z,99811.13
2023-05-21T14:41:31.042Z,99806.78
2023-05-21T14:43:58.083Z,99813.97
2023-05-21T14:46:24.977Z,99852.09
2023-05-21T14:48:53.042Z,99820.94
2023-05-21T14:51:20.454Z,99806.91
2023-05-21T14:53:47.463Z,99816.84
2023-05-21T14:56:14.207Z,99800.81
2023-05-21T14:58:41.036Z,99803.03
2023-05-21T15:01:08.271Z,99815.13
2023-05-21T15:03:38.252Z,99803.50
2023-05-21T15:06:05.135Z,99796.22
2023-05-21T15:08:31.850Z,99800.09
2023-05-21T15:10:58.643Z,99799.66
2023-05-21T15:13:25.717Z,99795.56
2023-05-21T15:15:52.484Z,99774.13
2023-05-21T15:18:19.321Z,99789.34
2023-05-21T15:20:46.149Z,99794.47
2023-05-21T15:23:17.819Z,99779.00
2023-05-21T15:25:45.804Z,99798.06
2023-05-21T15:28:13.149Z,99777.69
2023-05-21T15:30:40.440Z,99786.94
2023-05-21T15:33:07.494Z,99771.81
2023-05-21T15:35:36.413Z,99777.63
2023-05-21T15:38:03.650Z,99798.22
2023-05-21T15:40:30.631Z,99787.81
2023-05-21T15:42:57.363Z,99793.28
2023-05-21T15:45:24.998Z,99787.84
2023-05-21T15:47:51.842Z,99794.53
2023-05-21T15:50:18.721Z,99811.72
2023-05-21T15:52:45.546Z,99790.81
2023-05-21T15:55:14.135Z,99773.38
2023-05-21T15:57:41.278Z,99776.59
2023-05-21T16:00:09.621Z,99769.34
2023-05-21T16:02:36.935Z,99789.41
2023-05-21T16:05:03.872Z,99782.94
2023-05-21T16:07:30.781Z,99796.19
2023-05-21T16:09:57.506Z,99792.28
2023-05-21T16:12:24.423Z,99778.13
2023-05-21T16:14:51.372Z,99791.66
2023-05-21T16:17:19.818Z,99793.84
2023-05-21T16:19:47.571Z,99787.56
2023-05-21T16:22:14.982Z,99794.34
2023-05-21T16:24:41.746Z,99794.63
2023-05-21T16:27:08.463Z,99800.81
2023-05-21T16:29:35.242Z,99785.47
2023-05-21T16:32:02.311Z,99790.19
2023-05-21T16:34:29.096Z,99789.31
2023-05-21T16:36:55.956Z,99774.94
2023-05-21T16:39:24.239Z,99781.66
2023-05-21T16:41:51.209Z,99782.06
2023-05-21T16:44:18.157Z,99792.16
2023-05-21T16:46:44.970Z,99774.81
2023-05-21T16:49:11.822Z,99780.72
2023-05-21T16:51:38.682Z,99772.88
2023-05-21T16:54:06.576Z,99758.72
2023-05-21T16:56:33.375Z,99763.69
2023-05-21T16:59:00.130Z,99784.00
2023-05-21T17:01:27.080Z,99776.91
2023-05-21T17:03:55.979Z,99780.47
2023-05-21T17:06:25.196Z,99774.06
2023-05-21T17:08:52.050Z,99763.56
2023-05-21T17:11:18.904Z,99769.53
2023-05-21T17:13:48.230Z,99773.03
2023-05-21T17:16:15.407Z,99768.19
2023-05-21T17:18:42.186Z,99766.63
2023-05-21T17:21:09.714Z,99778.81
2023-05-21T17:23:36.430Z,99781.81
2023-05-21T17:26:03.495Z,99778.06
2023-05-21T17:28:30.218Z,99753.44
2023-05-21T17:30:56.932Z,99769.53
2023-05-21T17:33:24.590Z,99767.66
2023-05-21T17:35:51.353Z,99767.28
2023-05-21T17:38:18.123Z,99772.59
2023-05-21T17:40:45.006Z,99768.19
2023-05-21T17:43:11.730Z,99776.22
2023-05-21T17:45:38.800Z,99772.88
2023-05-21T17:48:06.237Z,99773.91
2023-05-21T17:50:34.312Z,99785.34
2023-05-21T17:53:01.076Z,99770.75
2023-05-21T17:55:27.913Z,99771.69
2023-05-21T17:57:54.732Z,99777.00
2023-05-21T18:00:21.506Z,99786.53
2023-05-21T18:02:48.292Z,99773.22
2023-05-21T18:05:14.958Z,99790.34
2023-05-21T18:07:41.645Z,99749.72
2023-05-21T18:10:08.672Z,99793.75
2023-05-21T18:12:35.967Z,99793.97
2023-05-21T18:15:02.905Z,99788.56
2023-05-21T18:17:29.697Z,99782.72
2023-05-21T18:19:56.521Z,99775.66
2023-05-21T18:22:23.271Z,99793.41
2023-05-21T18:24:50.021Z,99786.53
2023-05-21T18:27:16.894Z,99769.91
2023-05-21T18:29:43.881Z,99785.69
2023-05-21T18:32:11.791Z,99781.81
2023-05-21T18:34:38.978Z,99789.75
2023-05-21T18:37:06.900Z,99779.47
2023-05-21T18:39:33.678Z,99776.53
2023-05-21T18:42:11.972Z,99765.25
2023-05-21T18:44:40.552Z,99774.88
2023-05-21T18:47:08.135Z,99790.97
2023-05-21T18:49:36.201Z,99770.81
2023-05-21T18:52:04.643Z,99776.94
2023-05-21T18:54:31.478Z,99774.28
2023-05-21T18:57:00.609Z,99785.72
2023-05-21T18:59:29.280Z,99766.66
2023-05-21T19:01:56.308Z,99760.31
2023-05-21T19:04:23.185Z,99772.59
2023-05-21T19:06:50.062Z,99778.41
2023-05-21T19:09:17.075Z,99761.25
2023-05-21T19:11:43.967Z,99772.50
2023-05-21T19:14:10.808Z,99773.44
2023-05-21T19:16:37.506Z,99772.69
2023-05-21T19:19:04.525Z,99765.69
2023-05-21T19:21:31.655Z,99766.94
2023-05-21T19:23:58.702Z,99777.41
2023-05-21T19:26:25.515Z,99763.22
2023-05-21T19:28:54.564Z,99766.28
2023-05-21T19:31:22.799Z,99765.47
2023-05-21T19:33:49.937Z,99756.69
2023-05-21T19:36:17.090Z,99765.03
2023-05-21T19:38:50.896Z,99759.31
2023-05-21T19:41:18.387Z,99764.69
2023-05-21T19:43:45.674Z,99755.53
2023-05-21T19:46:12.673Z,99764.63
2023-05-21T19:48:39.642Z,99765.09
2023-05-21T19:51:06.394Z,99762.72
2023-05-21T19:53:33.122Z,99758.69
2023-05-21T19:56:00.213Z,99756.03
2023-05-21T19:58:29.588Z,99766.81
2023-05-21T20:00:58.596Z,99757.22
2023-05-21T20:03:32.155Z,99754.97
2023-05-21T20:05:59.423Z,99761.38
2023-05-21T20:08:26.140Z,99773.94
2023-05-21T20:10:53.390Z,99776.22
2023-05-21T20:13:21.817Z,99770.38
2023-05-21T20:15:49.891Z,99766.41
2023-05-21T20:18:17.614Z,99773.50
2023-05-21T20:20:44.360Z,99774.53
2023-05-21T20:23:11.021Z,99777.75
2023-05-21T20:25:37.946Z,99761.66
2023-05-21T20:28:05.512Z,99777.75
2023-05-21T20:30:33.390Z,99776.97
2023-05-21T20:33:04.059Z,99766.13
2023-05-21T20:35:30.991Z,99773.41
2023-05-21T20:37:57.763Z,99772.38
2023-05-21T20:40:24.772Z,99779.25
2023-05-21T20:42:53.144Z,99764.94
2023-05-21T20:45:21.148Z,99774.06
2023-05-21T20:47:49.914Z,99776.78
2023-05-21T20:50:18.032Z,99755.97
2023-05-21T20:52:47.012Z,99775.50
2023-05-21T20:55:14.904Z,99772.00
2023-05-21T20:57:42.307Z,99776.69
2023-05-21T21:00:11.678Z,99775.69
2023-05-21T21:02:39.141Z,99782.66
2023-05-21T21:05:06.507Z,99721.88
2023-05-21T21:07:34.438Z,99772.84
2023-05-21T21:10:01.587Z,99690.59
2023-05-21T21:12:28.782Z,99667.88
2023-05-21T21:14:55.938Z,99758.31
2023-05-21T21:17:23.209Z,99759.56
2023-05-21T21:19:50.210Z,99708.69
2023-05-21T21:22:18.546Z,99756.81
2023-05-21T21:24:45.895Z,99757.31
2023-05-21T21:27:12.800Z,99776.59
2023-05-21T21:29:39.520Z,99745.19
2023-05-21T21:32:07.219Z,99719.78
2023-05-21T21:34:34.161Z,99699.34
2023-05-21T21:37:01.096Z,99769.16
2023-05-21T21:39:28.294Z,99754.75
2023-05-21T21:41:55.064Z,99780.47
2023-05-21T21:44:21.896Z,99711.22
2023-05-21T21:46:48.809Z,99739.19
2023-05-21T21:49:17.531Z,99727.25
2023-05-21T21:51:45.129Z,99751.75
2023-05-21T21:54:12.222Z,99747.00
2023-05-21T21:56:39.849Z,99683.22
2023-05-21T21:59:06.565Z,99719.69
2023-05-21T22:01:33.741Z,99775.38
2023-05-21T22:04:00.594Z,99759.16
2023-05-21T22:06:28.699Z,99776.69
2023-05-21T22:08:55.544Z,99775.06
2023-05-21T22:11:24.970Z,99781.09
2023-05-21T22:13:53.916Z,99756.50
2023-05-21T22:16:27.712Z,99698.97
2023-05-21T22:18:54.725Z,99777.97
2023-05-21T22:21:21.886Z,99754.41
2023-05-21T22:23:48.584Z,99771.53
2023-05-21T22:26:15.239Z,99764.91
2023-05-21T22:28:42.453Z,99768.16
2023-05-21T22:31:09.231Z,99749.19
2023-05-21T22:33:36.828Z,99788.72
2023-05-21T22:36:03.652Z,99767.97
2023-05-21T22:38:30.676Z,99792.03
2023-05-21T22:40:57.417Z,99775.63
2023-05-21T22:43:25.987Z,99779.72
2023-05-21T22:45:52.809Z,99772.31
2023-05-21T22:48:22.060Z,99781.81
2023-05-21T22:50:50.321Z,99772.91
2023-05-21T22:53:17.588Z,99771.41
2023-05-21T22:55:44.557Z,99764.91
2023-05-21T22:58:11.496Z,99773.28
2023-05-21T23:00:38.585Z,99769.50
2023-05-21T23:03:05.527Z,99768.78
2023-05-21T23:05:32.401Z,99775.25
2023-05-21T23:07:59.220Z,99754.97
2023-05-21T23:10:26.419Z,99761.78
2023-05-21T23:12:53.422Z,99763.78
2023-05-21T23:15:20.215Z,99760.97
2023-05-21T23:17:47.109Z,99747.69
2023-05-21T23:20:15.587Z,99759.97
2023-05-21T23:22:42.246Z,99763.09
2023-05-21T23:25:09.570Z,99761.34
2023-05-21T23:27:36.352Z,99758.44
2023-05-21T23:30:03.080Z,99738.31
2023-05-21T23:32:29.825Z,99755.59
2023-05-21T23:34:57.008Z,99747.94
2023-05-21T23:37:23.756Z,99751.25
2023-05-21T23:39:51.491Z,99744.53
2023-05-21T23:42:18.790Z,99736.72
2023-05-21T23:44:45.630Z,99743.34
2023-05-21T23:47:12.423Z,99751.59
2023-05-21T23:49:39.693Z,99762.63
2023-05-21T23:52:07.055Z,99748.59
2023-05-21T23:54:33.811Z,99745.47
2023-05-21T23:57:00.765Z,99752.66
2023-05-21T23:59:27.608Z,99753.97
